sensor_id;sensor_type;location;lat;lon;timestamp;P1;durP1;ratioP1;P2;durP2;ratioP2
74510;SDS011;62991;50.040;18.400;2023-12-14T00:00:59;64.88;;;21.13;;
74510;SDS011;62991;50.040;18.400;2023-12-14T00:04:00;52.47;;;20.20;;
74510;SDS011;62991;50.040;18.400;2023-12-14T00:07:00;55.83;;;18.35;;
74510;SDS011;62991;50.040;18.400;2023-12-14T00:10:01;59.08;;;19.52;;
74510;SDS011;62991;50.040;18.400;2023-12-14T00:13:03;50.47;;;17.15;;
74510;SDS011;62991;50.040;18.400;2023-12-14T00:16:06;52.47;;;16.63;;
74510;SDS011;62991;50.040;18.400;2023-12-14T00:19:07;49.40;;;16.25;;
74510;SDS011;62991;50.040;18.400;2023-12-14T00:22:08;50.83;;;17.17;;
74510;SDS011;62991;50.040;18.400;2023-12-14T00:25:09;54.10;;;16.80;;
74510;SDS011;62991;50.040;18.400;2023-12-14T00:28:09;44.80;;;16.40;;
74510;SDS011;62991;50.040;18.400;2023-12-14T00:31:10;42.20;;;15.95;;
74510;SDS011;62991;50.040;18.400;2023-12-14T00:34:11;53.20;;;17.63;;
74510;SDS011;62991;50.040;18.400;2023-12-14T00:37:11;48.55;;;18.60;;
74510;SDS011;62991;50.040;18.400;2023-12-14T00:40:12;48.28;;;15.93;;
74510;SDS011;62991;50.040;18.400;2023-12-14T00:43:13;56.05;;;17.70;;
74510;SDS011;62991;50.040;18.400;2023-12-14T00:46:14;74.50;;;17.48;;
74510;SDS011;62991;50.040;18.400;2023-12-14T00:49:14;47.85;;;15.65;;
74510;SDS011;62991;50.040;18.400;2023-12-14T00:52:18;46.35;;;19.02;;
74510;SDS011;62991;50.040;18.400;2023-12-14T00:55:18;44.15;;;16.25;;
74510;SDS011;62991;50.040;18.400;2023-12-14T00:58:19;49.13;;;16.58;;
74510;SDS011;62991;50.040;18.400;2023-12-14T01:01:20;47.47;;;16.20;;
74510;SDS011;62991;50.040;18.400;2023-12-14T01:04:21;45.92;;;16.48;;
74510;SDS011;62991;50.040;18.400;2023-12-14T01:07:21;49.58;;;15.23;;
74510;SDS011;62991;50.040;18.400;2023-12-14T01:10:22;38.92;;;15.73;;
74510;SDS011;62991;50.040;18.400;2023-12-14T01:13:23;41.35;;;14.48;;
74510;SDS011;62991;50.040;18.400;2023-12-14T01:16:25;45.70;;;15.30;;
74510;SDS011;62991;50.040;18.400;2023-12-14T01:19:27;40.40;;;16.10;;
74510;SDS011;62991;50.040;18.400;2023-12-14T01:22:27;53.90;;;18.58;;
74510;SDS011;62991;50.040;18.400;2023-12-14T01:25:28;47.10;;;15.65;;
74510;SDS011;62991;50.040;18.400;2023-12-14T01:28:28;50.50;;;16.10;;
74510;SDS011;62991;50.040;18.400;2023-12-14T01:31:29;39.53;;;14.02;;
74510;SDS011;62991;50.040;18.400;2023-12-14T01:34:30;45.58;;;16.02;;
74510;SDS011;62991;50.040;18.400;2023-12-14T01:37:30;37.97;;;15.23;;
74510;SDS011;62991;50.040;18.400;2023-12-14T01:40:31;46.60;;;15.57;;
74510;SDS011;62991;50.040;18.400;2023-12-14T01:43:32;41.45;;;15.30;;
74510;SDS011;62991;50.040;18.400;2023-12-14T01:46:33;62.47;;;15.57;;
74510;SDS011;62991;50.040;18.400;2023-12-14T01:49:33;36.15;;;14.32;;
74510;SDS011;62991;50.040;18.400;2023-12-14T01:52:34;49.85;;;15.48;;
74510;SDS011;62991;50.040;18.400;2023-12-14T01:55:35;51.28;;;19.17;;
74510;SDS011;62991;50.040;18.400;2023-12-14T01:58:35;40.13;;;14.40;;
74510;SDS011;62991;50.040;18.400;2023-12-14T02:01:45;44.70;;;15.60;;
74510;SDS011;62991;50.040;18.400;2023-12-14T02:04:52;47.10;;;16.42;;
74510;SDS011;62991;50.040;18.400;2023-12-14T02:07:52;61.85;;;18.20;;
74510;SDS011;62991;50.040;18.400;2023-12-14T02:10:53;39.00;;;16.17;;
74510;SDS011;62991;50.040;18.400;2023-12-14T02:13:54;44.30;;;15.57;;
74510;SDS011;62991;50.040;18.400;2023-12-14T02:16:54;34.63;;;13.65;;
74510;SDS011;62991;50.040;18.400;2023-12-14T02:19:55;61.58;;;18.05;;
74510;SDS011;62991;50.040;18.400;2023-12-14T02:22:56;37.95;;;14.32;;
74510;SDS011;62991;50.040;18.400;2023-12-14T02:25:58;40.10;;;16.23;;
74510;SDS011;62991;50.040;18.400;2023-12-14T02:28:58;47.00;;;14.93;;
74510;SDS011;62991;50.040;18.400;2023-12-14T02:31:59;50.47;;;14.70;;
74510;SDS011;62991;50.040;18.400;2023-12-14T02:35:00;42.03;;;15.40;;
74510;SDS011;62991;50.040;18.400;2023-12-14T02:38:00;45.30;;;14.90;;
74510;SDS011;62991;50.040;18.400;2023-12-14T02:41:01;46.55;;;14.63;;
74510;SDS011;62991;50.040;18.400;2023-12-14T02:44:02;45.22;;;15.48;;
74510;SDS011;62991;50.040;18.400;2023-12-14T02:47:03;44.20;;;15.07;;
74510;SDS011;62991;50.040;18.400;2023-12-14T02:50:04;43.13;;;16.50;;
74510;SDS011;62991;50.040;18.400;2023-12-14T02:53:05;37.50;;;15.27;;
74510;SDS011;62991;50.040;18.400;2023-12-14T02:56:06;50.35;;;17.65;;
74510;SDS011;62991;50.040;18.400;2023-12-14T02:59:07;56.72;;;14.52;;
74510;SDS011;62991;50.040;18.400;2023-12-14T03:02:07;51.58;;;18.30;;
74510;SDS011;62991;50.040;18.400;2023-12-14T03:05:09;51.25;;;16.42;;
74510;SDS011;62991;50.040;18.400;2023-12-14T03:08:10;44.40;;;15.98;;
74510;SDS011;62991;50.040;18.400;2023-12-14T03:11:10;74.22;;;16.42;;
74510;SDS011;62991;50.040;18.400;2023-12-14T03:14:22;44.65;;;14.80;;
74510;SDS011;62991;50.040;18.400;2023-12-14T03:17:23;48.58;;;16.77;;
74510;SDS011;62991;50.040;18.400;2023-12-14T03:20:24;40.30;;;16.40;;
74510;SDS011;62991;50.040;18.400;2023-12-14T03:23:24;43.30;;;15.57;;
74510;SDS011;62991;50.040;18.400;2023-12-14T03:26:25;40.83;;;16.85;;
74510;SDS011;62991;50.040;18.400;2023-12-14T03:29:26;40.35;;;16.90;;
74510;SDS011;62991;50.040;18.400;2023-12-14T03:32:27;42.50;;;16.02;;
74510;SDS011;62991;50.040;18.400;2023-12-14T03:35:27;37.97;;;12.82;;
74510;SDS011;62991;50.040;18.400;2023-12-14T03:38:28;42.15;;;12.60;;
74510;SDS011;62991;50.040;18.400;2023-12-14T03:41:29;47.58;;;13.73;;
74510;SDS011;62991;50.040;18.400;2023-12-14T03:44:29;51.08;;;14.82;;
74510;SDS011;62991;50.040;18.400;2023-12-14T03:47:30;37.22;;;14.05;;
74510;SDS011;62991;50.040;18.400;2023-12-14T03:50:31;36.22;;;13.52;;
74510;SDS011;62991;50.040;18.400;2023-12-14T03:53:32;40.53;;;14.35;;
74510;SDS011;62991;50.040;18.400;2023-12-14T03:56:33;40.40;;;14.45;;
74510;SDS011;62991;50.040;18.400;2023-12-14T03:59:34;32.97;;;13.35;;
74510;SDS011;62991;50.040;18.400;2023-12-14T04:02:39;38.72;;;12.88;;
74510;SDS011;62991;50.040;18.400;2023-12-14T04:05:40;41.97;;;13.70;;
74510;SDS011;62991;50.040;18.400;2023-12-14T04:08:41;29.02;;;12.50;;
74510;SDS011;62991;50.040;18.400;2023-12-14T04:11:42;36.40;;;13.32;;
74510;SDS011;62991;50.040;18.400;2023-12-14T04:14:43;32.63;;;13.85;;
74510;SDS011;62991;50.040;18.400;2023-12-14T04:17:44;37.53;;;14.23;;
74510;SDS011;62991;50.040;18.400;2023-12-14T04:20:45;37.38;;;11.57;;
74510;SDS011;62991;50.040;18.400;2023-12-14T04:23:46;41.00;;;13.40;;
74510;SDS011;62991;50.040;18.400;2023-12-14T04:26:46;37.78;;;12.95;;
74510;SDS011;62991;50.040;18.400;2023-12-14T04:29:47;38.53;;;13.13;;
74510;SDS011;62991;50.040;18.400;2023-12-14T04:32:48;43.65;;;13.73;;
74510;SDS011;62991;50.040;18.400;2023-12-14T04:35:48;30.60;;;11.13;;
74510;SDS011;62991;50.040;18.400;2023-12-14T04:38:49;37.30;;;10.68;;
74510;SDS011;62991;50.040;18.400;2023-12-14T04:41:50;32.22;;;12.18;;
74510;SDS011;62991;50.040;18.400;2023-12-14T04:44:52;46.70;;;11.13;;
74510;SDS011;62991;50.040;18.400;2023-12-14T04:47:53;37.88;;;11.40;;
74510;SDS011;62991;50.040;18.400;2023-12-14T04:50:53;40.38;;;10.40;;
74510;SDS011;62991;50.040;18.400;2023-12-14T04:53:54;32.60;;;11.02;;
74510;SDS011;62991;50.040;18.400;2023-12-14T04:56:55;33.50;;;10.23;;
74510;SDS011;62991;50.040;18.400;2023-12-14T04:59:55;28.48;;;9.95;;
74510;SDS011;62991;50.040;18.400;2023-12-14T05:02:56;38.35;;;11.02;;
74510;SDS011;62991;50.040;18.400;2023-12-14T05:05:57;28.55;;;11.77;;
74510;SDS011;62991;50.040;18.400;2023-12-14T05:08:58;33.03;;;11.98;;
74510;SDS011;62991;50.040;18.400;2023-12-14T05:11:59;35.15;;;12.75;;
74510;SDS011;62991;50.040;18.400;2023-12-14T05:14:59;43.17;;;13.05;;
74510;SDS011;62991;50.040;18.400;2023-12-14T05:18:00;33.22;;;11.95;;
74510;SDS011;62991;50.040;18.400;2023-12-14T05:21:01;35.10;;;12.57;;
74510;SDS011;62991;50.040;18.400;2023-12-14T05:24:02;31.73;;;10.65;;
74510;SDS011;62991;50.040;18.400;2023-12-14T05:27:03;33.10;;;9.95;;
74510;SDS011;62991;50.040;18.400;2023-12-14T05:30:04;38.72;;;11.63;;
74510;SDS011;62991;50.040;18.400;2023-12-14T05:33:05;28.15;;;10.73;;
74510;SDS011;62991;50.040;18.400;2023-12-14T05:36:06;33.00;;;10.27;;
74510;SDS011;62991;50.040;18.400;2023-12-14T05:39:08;31.50;;;11.65;;
74510;SDS011;62991;50.040;18.400;2023-12-14T05:42:09;36.15;;;11.18;;
74510;SDS011;62991;50.040;18.400;2023-12-14T05:45:10;29.38;;;10.68;;
74510;SDS011;62991;50.040;18.400;2023-12-14T05:48:10;21.90;;;9.77;;
74510;SDS011;62991;50.040;18.400;2023-12-14T05:51:11;25.85;;;9.63;;
74510;SDS011;62991;50.040;18.400;2023-12-14T05:54:12;22.58;;;8.90;;
74510;SDS011;62991;50.040;18.400;2023-12-14T05:57:12;26.95;;;10.32;;
74510;SDS011;62991;50.040;18.400;2023-12-14T06:00:13;32.55;;;10.23;;
74510;SDS011;62991;50.040;18.400;2023-12-14T06:03:14;27.98;;;10.57;;
74510;SDS011;62991;50.040;18.400;2023-12-14T06:06:15;25.90;;;9.60;;
74510;SDS011;62991;50.040;18.400;2023-12-14T06:09:16;32.45;;;10.30;;
74510;SDS011;62991;50.040;18.400;2023-12-14T06:12:19;31.02;;;12.02;;
74510;SDS011;62991;50.040;18.400;2023-12-14T06:15:19;31.50;;;10.57;;
74510;SDS011;62991;50.040;18.400;2023-12-14T06:18:20;33.92;;;13.23;;
74510;SDS011;62991;50.040;18.400;2023-12-14T06:21:21;31.05;;;10.85;;
74510;SDS011;62991;50.040;18.400;2023-12-14T06:24:23;25.90;;;8.88;;
74510;SDS011;62991;50.040;18.400;2023-12-14T06:27:23;22.73;;;10.98;;
74510;SDS011;62991;50.040;18.400;2023-12-14T06:30:26;32.47;;;11.77;;
74510;SDS011;62991;50.040;18.400;2023-12-14T06:33:27;27.95;;;11.38;;
74510;SDS011;62991;50.040;18.400;2023-12-14T06:36:27;31.02;;;12.05;;
74510;SDS011;62991;50.040;18.400;2023-12-14T06:39:29;44.35;;;16.92;;
74510;SDS011;62991;50.040;18.400;2023-12-14T06:42:30;57.55;;;19.77;;
74510;SDS011;62991;50.040;18.400;2023-12-14T06:45:30;50.10;;;19.35;;
74510;SDS011;62991;50.040;18.400;2023-12-14T06:48:31;53.08;;;21.15;;
74510;SDS011;62991;50.040;18.400;2023-12-14T06:51:32;35.80;;;16.63;;
74510;SDS011;62991;50.040;18.400;2023-12-14T06:54:32;45.22;;;15.98;;
74510;SDS011;62991;50.040;18.400;2023-12-14T06:57:33;32.63;;;13.07;;
74510;SDS011;62991;50.040;18.400;2023-12-14T07:00:34;27.85;;;10.55;;
74510;SDS011;62991;50.040;18.400;2023-12-14T07:03:34;36.17;;;14.82;;
74510;SDS011;62991;50.040;18.400;2023-12-14T07:06:35;35.05;;;13.48;;
74510;SDS011;62991;50.040;18.400;2023-12-14T07:09:36;31.20;;;11.88;;
74510;SDS011;62991;50.040;18.400;2023-12-14T07:12:37;36.53;;;12.57;;
74510;SDS011;62991;50.040;18.400;2023-12-14T07:15:37;27.60;;;11.63;;
74510;SDS011;62991;50.040;18.400;2023-12-14T07:18:39;31.33;;;12.00;;
74510;SDS011;62991;50.040;18.400;2023-12-14T07:21:41;30.50;;;11.60;;
74510;SDS011;62991;50.040;18.400;2023-12-14T07:24:42;41.90;;;13.82;;
74510;SDS011;62991;50.040;18.400;2023-12-14T07:27:42;38.17;;;13.73;;
74510;SDS011;62991;50.040;18.400;2023-12-14T07:30:44;47.22;;;14.25;;
74510;SDS011;62991;50.040;18.400;2023-12-14T07:33:46;37.55;;;15.32;;
74510;SDS011;62991;50.040;18.400;2023-12-14T07:36:47;46.20;;;15.93;;
74510;SDS011;62991;50.040;18.400;2023-12-14T07:39:48;59.42;;;17.90;;
74510;SDS011;62991;50.040;18.400;2023-12-14T07:42:49;49.40;;;15.57;;
74510;SDS011;62991;50.040;18.400;2023-12-14T07:45:49;100.85;;;30.40;;
74510;SDS011;62991;50.040;18.400;2023-12-14T07:48:50;158.57;;;43.33;;
74510;SDS011;62991;50.040;18.400;2023-12-14T07:51:51;114.60;;;34.22;;
74510;SDS011;62991;50.040;18.400;2023-12-14T07:54:52;64.68;;;19.25;;
74510;SDS011;62991;50.040;18.400;2023-12-14T07:57:52;37.85;;;11.82;;
74510;SDS011;62991;50.040;18.400;2023-12-14T08:00:53;33.50;;;10.75;;
74510;SDS011;62991;50.040;18.400;2023-12-14T08:03:54;35.35;;;10.95;;
74510;SDS011;62991;50.040;18.400;2023-12-14T08:06:54;39.75;;;14.38;;
74510;SDS011;62991;50.040;18.400;2023-12-14T08:09:56;51.45;;;16.70;;
74510;SDS011;62991;50.040;18.400;2023-12-14T08:12:57;31.42;;;13.32;;
74510;SDS011;62991;50.040;18.400;2023-12-14T08:15:57;41.35;;;13.20;;
74510;SDS011;62991;50.040;18.400;2023-12-14T08:18:58;40.53;;;13.60;;
74510;SDS011;62991;50.040;18.400;2023-12-14T08:21:59;35.92;;;13.45;;
74510;SDS011;62991;50.040;18.400;2023-12-14T08:25:00;34.88;;;13.55;;
74510;SDS011;62991;50.040;18.400;2023-12-14T08:28:00;36.67;;;14.77;;
74510;SDS011;62991;50.040;18.400;2023-12-14T08:31:01;53.80;;;18.58;;
74510;SDS011;62991;50.040;18.400;2023-12-14T08:34:03;57.75;;;17.65;;
74510;SDS011;62991;50.040;18.400;2023-12-14T08:37:04;52.85;;;18.98;;
74510;SDS011;62991;50.040;18.400;2023-12-14T08:40:05;51.95;;;19.17;;
74510;SDS011;62991;50.040;18.400;2023-12-14T08:43:07;45.88;;;17.58;;
74510;SDS011;62991;50.040;18.400;2023-12-14T08:46:08;42.22;;;15.35;;
74510;SDS011;62991;50.040;18.400;2023-12-14T08:49:10;68.28;;;20.55;;
74510;SDS011;62991;50.040;18.400;2023-12-14T08:52:13;50.13;;;16.45;;
74510;SDS011;62991;50.040;18.400;2023-12-14T08:55:14;47.58;;;15.75;;
74510;SDS011;62991;50.040;18.400;2023-12-14T08:58:15;37.35;;;13.85;;
74510;SDS011;62991;50.040;18.400;2023-12-14T09:01:19;36.00;;;12.35;;
74510;SDS011;62991;50.040;18.400;2023-12-14T09:04:23;46.90;;;13.93;;
74510;SDS011;62991;50.040;18.400;2023-12-14T09:07:24;38.58;;;13.40;;
74510;SDS011;62991;50.040;18.400;2023-12-14T09:10:25;37.25;;;13.38;;
74510;SDS011;62991;50.040;18.400;2023-12-14T09:13:26;36.85;;;12.93;;
74510;SDS011;62991;50.040;18.400;2023-12-14T09:16:26;38.90;;;12.75;;
74510;SDS011;62991;50.040;18.400;2023-12-14T09:19:29;45.38;;;15.60;;
74510;SDS011;62991;50.040;18.400;2023-12-14T09:22:31;35.97;;;13.57;;
74510;SDS011;62991;50.040;18.400;2023-12-14T09:25:31;40.70;;;15.20;;
74510;SDS011;62991;50.040;18.400;2023-12-14T09:28:33;44.88;;;12.45;;
74510;SDS011;62991;50.040;18.400;2023-12-14T09:31:34;43.20;;;14.48;;
74510;SDS011;62991;50.040;18.400;2023-12-14T09:34:34;52.97;;;15.73;;
74510;SDS011;62991;50.040;18.400;2023-12-14T09:37:35;41.08;;;14.43;;
74510;SDS011;62991;50.040;18.400;2023-12-14T09:40:36;70.68;;;22.38;;
74510;SDS011;62991;50.040;18.400;2023-12-14T09:43:37;65.43;;;20.33;;
74510;SDS011;62991;50.040;18.400;2023-12-14T09:46:38;65.20;;;20.55;;
74510;SDS011;62991;50.040;18.400;2023-12-14T09:49:38;49.60;;;16.40;;
74510;SDS011;62991;50.040;18.400;2023-12-14T09:52:42;52.95;;;17.80;;
74510;SDS011;62991;50.040;18.400;2023-12-14T09:55:45;47.25;;;17.70;;
74510;SDS011;62991;50.040;18.400;2023-12-14T09:58:46;45.90;;;16.45;;
74510;SDS011;62991;50.040;18.400;2023-12-14T10:01:46;45.65;;;16.38;;
74510;SDS011;62991;50.040;18.400;2023-12-14T10:04:47;49.13;;;15.52;;
74510;SDS011;62991;50.040;18.400;2023-12-14T10:07:48;41.55;;;16.10;;
74510;SDS011;62991;50.040;18.400;2023-12-14T10:10:50;45.70;;;15.02;;
74510;SDS011;62991;50.040;18.400;2023-12-14T10:13:52;45.17;;;15.55;;
74510;SDS011;62991;50.040;18.400;2023-12-14T10:16:53;42.97;;;16.17;;
74510;SDS011;62991;50.040;18.400;2023-12-14T10:19:55;40.15;;;14.93;;
74510;SDS011;62991;50.040;18.400;2023-12-14T10:22:55;45.95;;;16.42;;
74510;SDS011;62991;50.040;18.400;2023-12-14T10:25:57;34.97;;;13.57;;
74510;SDS011;62991;50.040;18.400;2023-12-14T10:28:57;35.88;;;13.55;;
74510;SDS011;62991;50.040;18.400;2023-12-14T10:31:58;47.42;;;15.15;;
74510;SDS011;62991;50.040;18.400;2023-12-14T10:34:59;43.88;;;16.38;;
74510;SDS011;62991;50.040;18.400;2023-12-14T10:38:04;36.65;;;14.27;;
74510;SDS011;62991;50.040;18.400;2023-12-14T10:41:05;50.25;;;15.52;;
74510;SDS011;62991;50.040;18.400;2023-12-14T10:44:07;34.30;;;14.40;;
74510;SDS011;62991;50.040;18.400;2023-12-14T10:47:10;43.20;;;16.80;;
74510;SDS011;62991;50.040;18.400;2023-12-14T10:50:11;40.70;;;14.57;;
74510;SDS011;62991;50.040;18.400;2023-12-14T10:53:13;49.03;;;13.98;;
74510;SDS011;62991;50.040;18.400;2023-12-14T10:56:14;44.83;;;15.15;;
74510;SDS011;62991;50.040;18.400;2023-12-14T10:59:16;45.00;;;15.75;;
74510;SDS011;62991;50.040;18.400;2023-12-14T11:02:18;49.40;;;16.90;;
74510;SDS011;62991;50.040;18.400;2023-12-14T11:05:19;40.78;;;13.68;;
74510;SDS011;62991;50.040;18.400;2023-12-14T11:08:26;37.83;;;14.73;;
74510;SDS011;62991;50.040;18.400;2023-12-14T11:11:27;37.13;;;15.00;;
74510;SDS011;62991;50.040;18.400;2023-12-14T11:14:29;43.42;;;13.52;;
74510;SDS011;62991;50.040;18.400;2023-12-14T11:17:30;42.80;;;14.23;;
74510;SDS011;62991;50.040;18.400;2023-12-14T11:20:31;46.13;;;15.77;;
74510;SDS011;62991;50.040;18.400;2023-12-14T11:23:47;52.85;;;18.17;;
74510;SDS011;62991;50.040;18.400;2023-12-14T11:26:50;40.53;;;13.43;;
74510;SDS011;62991;50.040;18.400;2023-12-14T11:29:51;43.38;;;15.68;;
74510;SDS011;62991;50.040;18.400;2023-12-14T11:32:53;56.47;;;15.93;;
74510;SDS011;62991;50.040;18.400;2023-12-14T11:35:54;46.38;;;15.98;;
74510;SDS011;62991;50.040;18.400;2023-12-14T11:38:56;49.40;;;15.32;;
74510;SDS011;62991;50.040;18.400;2023-12-14T11:42:01;38.75;;;14.52;;
74510;SDS011;62991;50.040;18.400;2023-12-14T11:45:03;52.42;;;15.85;;
74510;SDS011;62991;50.040;18.400;2023-12-14T11:48:06;41.80;;;14.30;;
74510;SDS011;62991;50.040;18.400;2023-12-14T11:51:07;41.78;;;16.38;;
74510;SDS011;62991;50.040;18.400;2023-12-14T11:54:08;41.85;;;14.20;;
74510;SDS011;62991;50.040;18.400;2023-12-14T11:57:09;37.15;;;12.82;;
74510;SDS011;62991;50.040;18.400;2023-12-14T12:00:10;43.50;;;14.82;;
74510;SDS011;62991;50.040;18.400;2023-12-14T12:03:15;39.65;;;12.75;;
74510;SDS011;62991;50.040;18.400;2023-12-14T12:06:23;33.80;;;13.75;;
74510;SDS011;62991;50.040;18.400;2023-12-14T12:09:38;45.58;;;14.38;;
74510;SDS011;62991;50.040;18.400;2023-12-14T12:12:41;35.00;;;12.70;;
74510;SDS011;62991;50.040;18.400;2023-12-14T12:15:43;39.67;;;12.95;;
74510;SDS011;62991;50.040;18.400;2023-12-14T12:18:44;50.05;;;16.20;;
74510;SDS011;62991;50.040;18.400;2023-12-14T12:21:44;36.67;;;12.25;;
74510;SDS011;62991;50.040;18.400;2023-12-14T12:24:45;44.35;;;14.20;;
74510;SDS011;62991;50.040;18.400;2023-12-14T12:27:46;44.80;;;13.63;;
74510;SDS011;62991;50.040;18.400;2023-12-14T12:30:47;40.45;;;12.70;;
74510;SDS011;62991;50.040;18.400;2023-12-14T12:33:47;46.60;;;14.27;;
74510;SDS011;62991;50.040;18.400;2023-12-14T12:36:48;46.03;;;13.75;;
74510;SDS011;62991;50.040;18.400;2023-12-14T12:39:49;47.55;;;14.70;;
74510;SDS011;62991;50.040;18.400;2023-12-14T12:42:50;53.25;;;14.50;;
74510;SDS011;62991;50.040;18.400;2023-12-14T12:45:51;40.80;;;14.48;;
74510;SDS011;62991;50.040;18.400;2023-12-14T12:48:52;41.90;;;15.88;;
74510;SDS011;62991;50.040;18.400;2023-12-14T12:51:52;44.90;;;15.60;;
74510;SDS011;62991;50.040;18.400;2023-12-14T12:54:53;42.83;;;13.30;;
74510;SDS011;62991;50.040;18.400;2023-12-14T12:57:54;38.78;;;14.35;;
74510;SDS011;62991;50.040;18.400;2023-12-14T13:00:54;47.30;;;16.60;;
74510;SDS011;62991;50.040;18.400;2023-12-14T13:03:55;51.40;;;14.30;;
74510;SDS011;62991;50.040;18.400;2023-12-14T13:06:57;49.80;;;16.17;;
74510;SDS011;62991;50.040;18.400;2023-12-14T13:09:57;44.92;;;15.57;;
74510;SDS011;62991;50.040;18.400;2023-12-14T13:12:58;44.05;;;15.10;;
74510;SDS011;62991;50.040;18.400;2023-12-14T13:15:59;50.95;;;14.82;;
74510;SDS011;62991;50.040;18.400;2023-12-14T13:19:00;51.53;;;15.18;;
74510;SDS011;62991;50.040;18.400;2023-12-14T13:22:01;45.58;;;14.60;;
74510;SDS011;62991;50.040;18.400;2023-12-14T13:25:03;49.25;;;16.85;;
74510;SDS011;62991;50.040;18.400;2023-12-14T13:28:04;53.53;;;17.17;;
74510;SDS011;62991;50.040;18.400;2023-12-14T13:31:05;42.08;;;14.45;;
74510;SDS011;62991;50.040;18.400;2023-12-14T13:34:06;45.13;;;13.45;;
74510;SDS011;62991;50.040;18.400;2023-12-14T13:37:07;47.33;;;14.35;;
74510;SDS011;62991;50.040;18.400;2023-12-14T13:40:09;45.28;;;13.85;;
74510;SDS011;62991;50.040;18.400;2023-12-14T13:43:10;45.28;;;14.70;;
74510;SDS011;62991;50.040;18.400;2023-12-14T13:46:11;50.50;;;15.55;;
74510;SDS011;62991;50.040;18.400;2023-12-14T13:49:12;50.20;;;16.15;;
74510;SDS011;62991;50.040;18.400;2023-12-14T13:52:12;50.50;;;17.00;;
74510;SDS011;62991;50.040;18.400;2023-12-14T13:55:13;53.90;;;17.45;;
74510;SDS011;62991;50.040;18.400;2023-12-14T13:58:14;45.40;;;16.95;;
74510;SDS011;62991;50.040;18.400;2023-12-14T14:01:15;53.17;;;18.50;;
74510;SDS011;62991;50.040;18.400;2023-12-14T14:04:17;39.28;;;16.30;;
74510;SDS011;62991;50.040;18.400;2023-12-14T14:07:18;40.90;;;12.45;;
74510;SDS011;62991;50.040;18.400;2023-12-14T14:10:19;40.78;;;14.00;;
74510;SDS011;62991;50.040;18.400;2023-12-14T14:13:20;40.17;;;15.70;;
74510;SDS011;62991;50.040;18.400;2023-12-14T14:16:21;44.50;;;15.93;;
74510;SDS011;62991;50.040;18.400;2023-12-14T14:19:22;44.60;;;17.00;;
74510;SDS011;62991;50.040;18.400;2023-12-14T14:22:23;36.65;;;12.43;;
74510;SDS011;62991;50.040;18.400;2023-12-14T14:25:24;40.33;;;12.88;;
74510;SDS011;62991;50.040;18.400;2023-12-14T14:28:25;40.38;;;11.77;;
74510;SDS011;62991;50.040;18.400;2023-12-14T14:31:26;36.38;;;13.95;;
74510;SDS011;62991;50.040;18.400;2023-12-14T14:34:30;27.00;;;11.95;;
74510;SDS011;62991;50.040;18.400;2023-12-14T14:37:30;29.65;;;11.40;;
74510;SDS011;62991;50.040;18.400;2023-12-14T14:40:31;38.10;;;12.63;;
74510;SDS011;62991;50.040;18.400;2023-12-14T14:43:32;45.92;;;15.98;;
74510;SDS011;62991;50.040;18.400;2023-12-14T14:46:33;34.30;;;12.10;;
74510;SDS011;62991;50.040;18.400;2023-12-14T14:49:33;42.10;;;14.73;;
74510;SDS011;62991;50.040;18.400;2023-12-14T14:52:34;44.45;;;15.20;;
74510;SDS011;62991;50.040;18.400;2023-12-14T14:55:35;36.72;;;13.43;;
74510;SDS011;62991;50.040;18.400;2023-12-14T14:58:35;42.72;;;14.15;;
74510;SDS011;62991;50.040;18.400;2023-12-14T15:01:36;43.90;;;15.63;;
74510;SDS011;62991;50.040;18.400;2023-12-14T15:04:37;43.08;;;14.48;;
74510;SDS011;62991;50.040;18.400;2023-12-14T15:07:38;45.45;;;13.85;;
74510;SDS011;62991;50.040;18.400;2023-12-14T15:10:39;38.83;;;15.15;;
74510;SDS011;62991;50.040;18.400;2023-12-14T15:13:39;38.63;;;16.10;;
74510;SDS011;62991;50.040;18.400;2023-12-14T15:16:41;44.55;;;14.95;;
74510;SDS011;62991;50.040;18.400;2023-12-14T15:19:42;38.42;;;14.18;;
74510;SDS011;62991;50.040;18.400;2023-12-14T15:22:46;41.72;;;15.00;;
74510;SDS011;62991;50.040;18.400;2023-12-14T15:25:46;45.20;;;14.07;;
74510;SDS011;62991;50.040;18.400;2023-12-14T15:28:47;42.97;;;15.18;;
74510;SDS011;62991;50.040;18.400;2023-12-14T15:31:48;38.50;;;13.88;;
74510;SDS011;62991;50.040;18.400;2023-12-14T15:34:51;43.05;;;15.30;;
74510;SDS011;62991;50.040;18.400;2023-12-14T15:37:52;48.80;;;18.33;;
74510;SDS011;62991;50.040;18.400;2023-12-14T15:40:53;48.85;;;17.00;;
74510;SDS011;62991;50.040;18.400;2023-12-14T15:43:53;56.58;;;17.75;;
74510;SDS011;62991;50.040;18.400;2023-12-14T15:46:54;55.95;;;15.57;;
74510;SDS011;62991;50.040;18.400;2023-12-14T15:49:55;33.22;;;12.45;;
74510;SDS011;62991;50.040;18.400;2023-12-14T15:52:56;43.45;;;13.63;;
74510;SDS011;62991;50.040;18.400;2023-12-14T15:55:56;33.97;;;12.52;;
74510;SDS011;62991;50.040;18.400;2023-12-14T15:58:58;35.45;;;10.95;;
74510;SDS011;62991;50.040;18.400;2023-12-14T16:01:58;40.60;;;14.88;;
74510;SDS011;62991;50.040;18.400;2023-12-14T16:04:59;56.70;;;14.98;;
74510;SDS011;62991;50.040;18.400;2023-12-14T16:08:00;51.95;;;17.45;;
74510;SDS011;62991;50.040;18.400;2023-12-14T16:11:01;64.38;;;20.20;;
74510;SDS011;62991;50.040;18.400;2023-12-14T16:14:02;48.05;;;15.98;;
74510;SDS011;62991;50.040;18.400;2023-12-14T16:17:03;59.75;;;17.23;;
74510;SDS011;62991;50.040;18.400;2023-12-14T16:20:04;41.10;;;13.13;;
74510;SDS011;62991;50.040;18.400;2023-12-14T16:23:05;31.98;;;11.55;;
74510;SDS011;62991;50.040;18.400;2023-12-14T16:26:06;41.50;;;14.93;;
74510;SDS011;62991;50.040;18.400;2023-12-14T16:29:10;26.67;;;11.95;;
74510;SDS011;62991;50.040;18.400;2023-12-14T16:32:11;32.53;;;11.75;;
74510;SDS011;62991;50.040;18.400;2023-12-14T16:35:12;25.95;;;10.48;;
74510;SDS011;62991;50.040;18.400;2023-12-14T16:38:14;31.92;;;10.88;;
74510;SDS011;62991;50.040;18.400;2023-12-14T16:41:19;23.23;;;8.07;;
74510;SDS011;62991;50.040;18.400;2023-12-14T16:44:20;23.20;;;8.73;;
74510;SDS011;62991;50.040;18.400;2023-12-14T16:47:21;23.88;;;8.77;;
74510;SDS011;62991;50.040;18.400;2023-12-14T16:50:22;26.73;;;9.93;;
74510;SDS011;62991;50.040;18.400;2023-12-14T16:53:22;27.70;;;10.68;;
74510;SDS011;62991;50.040;18.400;2023-12-14T16:56:31;21.60;;;8.45;;
74510;SDS011;62991;50.040;18.400;2023-12-14T16:59:32;22.38;;;9.32;;
74510;SDS011;62991;50.040;18.400;2023-12-14T17:02:32;23.27;;;10.23;;
74510;SDS011;62991;50.040;18.400;2023-12-14T17:05:33;18.55;;;8.35;;
74510;SDS011;62991;50.040;18.400;2023-12-14T17:08:34;19.50;;;6.90;;
74510;SDS011;62991;50.040;18.400;2023-12-14T17:11:35;21.67;;;7.97;;
74510;SDS011;62991;50.040;18.400;2023-12-14T17:14:36;16.35;;;7.60;;
74510;SDS011;62991;50.040;18.400;2023-12-14T17:17:37;17.90;;;5.55;;
74510;SDS011;62991;50.040;18.400;2023-12-14T17:20:37;27.90;;;8.68;;
74510;SDS011;62991;50.040;18.400;2023-12-14T17:23:38;16.75;;;7.43;;